Onion Creek, California Weather observations

Data are for observation ending at time listed.
 Day   Time    Ave.   Ave.  Ave.  Vector   Max.   Stn.    Total    Solar   Ave.   Snow 
  of    of     Air    Rel.  Wind   Wind    Wind   Baro.  Precip.   Rad.    Soil   Depth
Year   Day     Temp.  Hum.  Speed  Dir.    Gust   Pres.                    Temp.       
2015   (PST)    F      %     mph   deg.    mph     mb.     in.     W/m2     F      in. 
---------------------------------------------------------------------------------------  
 149    0:00   46.2    69    1.2    36      1.8   833.2   33.97       0    56.2   999.0
 149    0:10   46.2    70    1.2    44      2.1   833.2   33.97       0    56.0   999.0
 149    0:20   45.9    72    1.4    42      2.3   833.1   33.97       0    55.8   999.0
 149    0:30   45.5    72    1.2    44      2.1   832.9   33.97       0    55.7   999.0
 149    0:40   45.8    73    1.6    42      2.2   832.8   34.01       0    55.5   999.0
 149    0:50   45.8    73    1.2    44      2.3   832.7   34.01       0    55.3   999.0
 149    1:00   45.3    76    0.8    40      2.3   832.6   34.01       0    55.1   999.0
 149    1:10   45.5    75    1.7    48      2.9   832.6   34.01       0    55.0   999.0
 149    1:20   45.7    74    1.6    41      2.8   832.7   33.97       0    54.8   999.0
 149    1:30   45.4    75    1.2    41      2.5   832.7   34.01       0    54.7   999.0
 149    1:40   45.6    74    1.7    28      2.9   832.7   34.01       0    54.5   999.0
 149    1:50   45.8    74    1.4    28      2.3   832.7   34.01       0    54.4   999.0
 149    2:00   46.1    73    1.4    54      2.8   832.7   34.01       0    54.2   999.0
 149    2:10   45.6    76    1.5    47      2.5   832.6   33.97       0    54.1   999.0
 149    2:20   45.4    78    1.3    35      2.8   832.6   34.01       0    53.9   999.0
 149    2:30   45.3    80    1.7    44      3.0   832.6   34.01       0    53.8   999.0
 149    2:40   45.7    77    2.0    45      2.9   832.6   34.01       0    53.7   999.0
 149    2:50   46.2    77    2.4    41      3.1   832.5   34.01       0    53.5   999.0
 149    3:00   46.2    79    2.2    37      3.1   832.5   34.01       0    53.4   999.0
 149    3:10   46.2    79    2.3    39      2.9   832.4   34.01       0    53.3   999.0
 149    3:20   46.3    77    1.8    46      2.9   832.3   33.97       0    53.1   999.0
 149    3:30   46.6    76    1.5    50      2.8   832.3   33.97       0    53.0   999.0
 149    3:40   46.6    77    1.9    36      3.0   832.2   34.01       0    52.9   999.0
 149    3:50   46.5    79    1.9    36      3.1   832.2   33.97       0    52.8   999.0
 149    4:00   46.4    81    1.4    49      2.1   832.2   34.01       0    52.7   999.0
 149    4:10   46.4    81    2.2    43      3.3   832.2   34.01       0    52.5   999.0
 149    4:20   46.7    81    1.4    51      2.4   832.3   34.01       0    52.4   999.0
 149    4:30   46.8    81    1.8    44      3.2   832.3   34.01       1    52.3   999.0
 149    4:40   46.6    81    1.6    31      2.9   832.3   34.01       2    52.2   999.0
 149    4:50   46.3    81    2.1    24      3.4   832.3   33.97       4    52.1   999.0
 149    5:00   46.4    79    1.5    22      2.6   832.4   33.97       6    52.0   999.0
 149    5:10   46.2    78    1.4    17      2.1   832.4   34.01       8    51.9   999.0
 149    5:20   46.0    79    2.0    30      3.5   832.4   34.01      10    51.8   999.0
 149    5:30   45.7    80    2.3    32      3.5   832.4   34.01      12    51.7   999.0
 149    5:40   46.2    78    2.2    26      3.1   832.3   34.01      14    51.6   999.0
 149    5:50   46.2    78    2.3    30      3.6   832.4   34.01      14    51.5   999.0
 149    6:00   46.1    79    1.8    25      2.4   832.4   34.01      15    51.4   999.0
 149    6:10   45.9    80    1.9    28      2.6   832.4   34.01      17    51.4   999.0
 149    6:20   46.2    80    1.8    56      3.4   832.5   34.01      21    51.3   999.0
 149    6:30   46.7    78    1.8    47      2.9   832.5   34.01      22    51.2   999.0
 149    6:40   47.5    76    1.8    52      2.8   832.5   34.04      27    51.1   999.0
 149    6:50   48.4    74    2.2    50      3.3   832.5   34.04     205    51.1   999.0
 149    7:00   51.0    68    1.7    47      2.8   832.6   34.01     407    51.0   999.0
 149    7:10   52.4    66    1.6    60      3.0   832.7   34.04     443    51.0   999.0
 149    7:20   53.6    65    1.4    60      2.6   832.8   34.04     479    50.9   999.0
 149    7:30   55.0    62    1.2    59      2.2   832.8   34.01     513    51.0   999.0
 149    7:40   56.4    60    1.2    61      2.4   832.9   34.04     547    51.1   999.0
 149    7:50   57.4    60    1.5    70      2.3   832.9   34.01     580    51.2   999.0
 149    8:00   58.4    60    1.0    69      2.3   832.9   34.01     612    51.5   999.0
 149    8:10   59.5    60    1.2    63      2.6   832.9   34.04     645    51.7   999.0
 149    8:20   61.6    51    1.2    43      2.8   832.9   34.01     668    52.1   999.0
 149    8:30   64.4    41    1.3   217      3.3   832.9   34.01     639    52.4   999.0
 149    8:40   65.8    43    1.8   279      5.0   832.9   34.04     731    52.7   999.0
 149    8:50   66.1    37    1.4   307      3.6   832.9   34.04     759    53.0   999.0
 149    9:00   67.5    32    1.6   254      5.5   832.9   34.04     785    53.3   999.0
 149    9:10   68.6    32    1.0   275      4.5   832.9   34.01     702    53.5   999.0
 149    9:20   69.8    31    2.0   254      4.8   833.0   34.04     840    53.7   999.0
 149    9:30   69.8    30    2.0   290      6.1   833.0   34.01     869    53.8   999.0
 149    9:40   69.6    28    1.9   266      5.9   833.0   34.01     892    53.9   999.0
 149    9:50   70.0    28    1.9   104      5.3   833.0   34.01     927    54.2   999.0
 149   10:00   70.3    27    2.2   215      5.6   833.0   34.01     942    54.5   999.0
 149   10:10   71.0    25    2.6   242      5.6   833.0   34.01     979    54.8   999.0
 149   10:20   71.4    23    4.2   277     10.1   833.0   34.01     990    55.2   999.0
 149   10:30   71.7    21    3.6   268      9.0   833.0   34.01     999    55.7   999.0
 149   10:40   71.6    23    4.5   265      9.4   833.0   33.97    1022    56.2   999.0
 149   10:50   71.4    22    3.7   244     10.4   833.0   34.01    1033    56.6   999.0
 149   11:00   71.7    21    5.2   285     11.6   833.0   33.97    1045    57.0   999.0
 149   11:10   71.9    22    3.6   261      8.8   833.0   33.97     924    57.5   999.0
 149   11:20   71.4    22    3.6   251     10.0   833.0   34.01     842    57.9   999.0
 149   11:30   71.8    21    3.6   248      7.5   833.0   34.01    1053    58.4   999.0
 149   11:40   72.5    21    4.0   274     10.3   833.1   33.97    1053    58.8   999.0
 149   11:50   72.6    21    3.8   264     10.3   833.0   33.97    1058    59.2   999.0
 149   12:00   73.0    22    4.0   274      9.3   832.9   33.97    1075    59.5   999.0
 149   12:10   72.5    21    5.1   272     13.4   832.9   33.97    1064    59.8   999.0
 149   12:20   72.9    22    4.0   254      9.0   832.9   33.97    1065    60.1   999.0
 149   12:30   73.0    22    4.0   252     13.6   832.9   33.97    1042    60.3   999.0
 149   12:40   73.1    22    5.3   271     13.1   832.9   34.01    1041    60.4   999.0
 149   12:50   72.7    24    4.5   276     11.1   832.8   33.97    1052    60.6   999.0
 149   13:00   72.9    25    4.6   270     12.3   832.7   34.01    1072    60.8   999.0
 149   13:10   73.6    24    4.0   275     10.6   832.7   33.97    1053    61.0   999.0
 149   13:20   73.0    24    4.5   276     12.3   832.6   33.97     976    61.3   999.0
 149   13:30   72.9    24    4.1   260     10.0   832.6   33.97     788    61.6   999.0
 149   13:40   72.5    25    4.3   246     10.1   832.7   33.97     900    61.8   999.0
 149   13:50   73.1    26    3.7   268      8.9   832.7   33.97     815    62.1   999.0
 149   14:00   72.9    25    3.5   266      8.0   832.7   33.97     755    62.4   999.0
 149   14:10   72.5    27    3.5   263     11.1   832.7   33.97     791    62.7   999.0
 149   14:20   73.0    27    3.4   262      9.9   832.7   33.97     909    62.9   999.0
 149   14:30   72.7    27    2.8   256      9.2   832.6   33.97     492    63.2   999.0
 149   14:40   71.3    27    3.3   259      8.8   832.5   33.97     449    63.5   999.0
 149   14:50   70.6    28    2.9   253      9.4   832.5   33.97     424    63.8   999.0
 149   15:00   70.8    29    4.1   262      9.9   832.6   33.97     519    64.0   999.0
 149   15:10   70.9    29    3.5   253      7.5   832.6   33.97     514    64.2   999.0
 149   15:20   70.4    29    3.5   262      9.3   832.6   33.97     405    64.4   999.0
 149   15:30   69.3    30    2.8   260      6.6   832.6   33.97     339    64.6   999.0
 149   15:40   69.5    30    2.5   263      7.7   832.7   33.97     374    64.7   999.0
 149   15:50   69.4    31    2.0   259      5.6   832.7   33.97     346    64.8   999.0
 149   16:00   69.5    31    3.4   264      7.3   832.7   33.97     500    64.9   999.0
 149   16:10   69.7    30    3.4   258      8.5   832.6   33.97     520    64.9   999.0
 149   16:20   70.4    30    3.4   263      7.2   832.6   33.94     506    65.0   999.0
 149   16:30   69.9    32    1.9   266      5.8   832.5   33.97     319    65.0   999.0
 149   16:40   68.9    32    3.1   237      9.6   832.5   33.97     298    65.0   999.0
 149   16:50   68.9    33    2.9   259      9.5   832.5   33.97     396    65.0   999.0
 149   17:00   68.9    33    2.6   251      7.7   832.5   33.97     303    65.0   999.0
 149   17:10   68.1    34    2.3   242      6.2   832.4   33.97     243    64.9   999.0
 149   17:20   68.5    35    3.3   280      8.5   832.4   33.97     326    64.9   999.0
 149   17:30   68.2    35    2.8   273      7.2   832.4   33.97     173    64.8   999.0
 149   17:40   67.2    38    2.5   254      5.4   832.3   33.97     196    64.8   999.0
 149   17:50   67.7    39    1.5   272      3.2   832.3   33.97     195    64.8   999.0
 149   18:00   67.2    39    2.3   275      5.0   832.4   33.97     141    64.7   999.0
 149   18:10   66.5    42    1.4   262      4.2   832.4   33.97     139    64.6   999.0
 149   18:20   65.4    45    1.4   303      3.4   832.4   33.97     101    64.5   999.0
 149   18:30   62.8    54    0.3   342      1.5   832.4   33.97      48    64.5   999.0
 149   18:40   60.5    59    0.5   355      1.4   832.4   34.01      32    64.3   999.0
 149   18:50   59.0    64    0.9    37      2.0   832.4   33.97      19    64.2   999.0
 149   19:00   58.0    67    0.8    10      1.8   832.5   33.94      11    64.1   999.0
 149   19:10   56.8    68    0.8    30      2.3   832.5   33.97       7    63.9   999.0
 149   19:20   55.8    69    1.1    29      2.6   832.5   33.97       3    63.7   999.0
 149   19:30   55.0    71    0.7    22      2.1   832.5   33.97       1    63.5   999.0
 149   19:40   54.4    72    1.0    39      3.1   832.5   33.97       0    63.3   999.0
 149   19:50   54.4    71    1.2    39      2.3   832.6   33.97       0    63.1   999.0
 149   20:00   54.0    71    1.3    26      2.8   832.6   33.97       0    62.9   999.0
 149   20:10   54.0    71    1.7    31      2.9   832.6   33.97       0    62.7   999.0
 149   20:20   54.1    72    1.9    41      3.1   832.7   33.97       0    62.5   999.0
 149   20:30   53.8    72    1.5    30      2.4   832.7   33.97       0    62.2   999.0
 149   20:40   53.7    72    1.7    41      2.7   832.8   33.97       0    62.1   999.0
 149   20:50   53.5    73    1.1    46      2.2   832.9   33.97       0    61.9   999.0
 149   21:00   53.2    72    1.7    33      2.7   832.9   33.97       0    61.7   999.0
 149   21:10   53.1    71    1.7    44      2.6   832.9   33.97       0    61.5   999.0
 149   21:20   52.8    71    1.9    38      2.9   833.0   34.01       0    61.3   999.0
 149   21:30   52.6    70    2.1    38      2.6   833.0   33.97       0    61.1   999.0
 149   21:40   52.4    72    1.6    44      2.8   833.0   33.97       0    60.9   999.0
 149   21:50   52.3    74    1.3    46      2.1   833.0   33.97       0    60.7   999.0
 149   22:00   52.3    74    1.5    44      2.4   833.0   33.97       0    60.6   999.0
 149   22:10   52.3    73    1.8    42      2.6   833.0   33.97       0    60.4   999.0
 149   22:20   52.3    74    1.5    43      2.6   833.0   33.97       0    60.2   999.0
 149   22:30   52.3    74    1.9    42      3.1   833.1   34.01       0    60.0   999.0
 149   22:40   52.3    74    1.5    28      2.6   833.1   34.01       0    59.9   999.0
 149   22:50   52.3    75    1.6    42      2.7   833.0   33.97       0    59.7   999.0
 149   23:00   52.3    75    2.0    40      2.9   833.0   33.97       0    59.6   999.0
 149   23:10   52.1    76    1.6    28      2.9   833.0   33.97       0    59.4   999.0
 149   23:20   52.1    75    1.5    29      2.6   833.0   33.97       0    59.3   999.0
 149   23:30   52.0    75    1.6    34      2.4   832.9   33.97       0    59.1   999.0

Return to Onion Creek graphs page.


Western Regional Climate Center,wrcc@dri.edu